sensor_id;sensor_type;location;lat;lon;timestamp;P1;durP1;ratioP1;P2;durP2;ratioP2
59828;SDS011;45708;51.848;107.620;2023-11-18T00:04:01;0.63;;;0.63;;
59828;SDS011;45708;51.848;107.620;2023-11-18T00:09:02;0.40;;;0.40;;
59828;SDS011;45708;51.848;107.620;2023-11-18T00:14:02;2.10;;;1.20;;
59828;SDS011;45708;51.848;107.620;2023-11-18T00:19:03;0.33;;;0.33;;
59828;SDS011;45708;51.848;107.620;2023-11-18T00:24:04;0.70;;;0.70;;
59828;SDS011;45708;51.848;107.620;2023-11-18T00:29:05;2.63;;;2.47;;
59828;SDS011;45708;51.848;107.620;2023-11-18T00:34:06;2.33;;;1.83;;
59828;SDS011;45708;51.848;107.620;2023-11-18T00:39:07;4.40;;;3.10;;
59828;SDS011;45708;51.848;107.620;2023-11-18T00:44:08;0.60;;;0.60;;
59828;SDS011;45708;51.848;107.620;2023-11-18T00:49:09;0.40;;;0.40;;
59828;SDS011;45708;51.848;107.620;2023-11-18T00:54:09;0.60;;;0.60;;
59828;SDS011;45708;51.848;107.620;2023-11-18T00:59:10;4.33;;;3.17;;
59828;SDS011;45708;51.848;107.620;2023-11-18T01:04:11;3.60;;;3.10;;
59828;SDS011;45708;51.848;107.620;2023-11-18T01:09:12;3.73;;;2.20;;
59828;SDS011;45708;51.848;107.620;2023-11-18T01:14:13;0.30;;;0.30;;
59828;SDS011;45708;51.848;107.620;2023-11-18T01:19:13;3.40;;;1.93;;
59828;SDS011;45708;51.848;107.620;2023-11-18T01:24:14;1.53;;;1.53;;
59828;SDS011;45708;51.848;107.620;2023-11-18T01:29:15;0.30;;;0.30;;
59828;SDS011;45708;51.848;107.620;2023-11-18T01:34:16;10.83;;;7.00;;
59828;SDS011;45708;51.848;107.620;2023-11-18T01:39:17;0.37;;;0.37;;
59828;SDS011;45708;51.848;107.620;2023-11-18T01:44:18;1.37;;;1.33;;
59828;SDS011;45708;51.848;107.620;2023-11-18T01:49:19;1.07;;;1.07;;
59828;SDS011;45708;51.848;107.620;2023-11-18T01:54:21;2.77;;;2.47;;
59828;SDS011;45708;51.848;107.620;2023-11-18T01:59:23;6.83;;;5.17;;
59828;SDS011;45708;51.848;107.620;2023-11-18T02:04:23;8.57;;;7.87;;
59828;SDS011;45708;51.848;107.620;2023-11-18T02:09:24;3.47;;;3.30;;
59828;SDS011;45708;51.848;107.620;2023-11-18T02:14:26;0.83;;;0.83;;
59828;SDS011;45708;51.848;107.620;2023-11-18T02:19:28;0.97;;;0.97;;
59828;SDS011;45708;51.848;107.620;2023-11-18T02:24:31;2.93;;;2.60;;
59828;SDS011;45708;51.848;107.620;2023-11-18T02:29:33;1.03;;;1.03;;
59828;SDS011;45708;51.848;107.620;2023-11-18T02:34:36;1.93;;;1.83;;
59828;SDS011;45708;51.848;107.620;2023-11-18T02:39:45;3.08;;;2.97;;
59828;SDS011;45708;51.848;107.620;2023-11-18T02:44:53;1.25;;;1.05;;
59828;SDS011;45708;51.848;107.620;2023-11-18T02:49:55;1.43;;;1.43;;
59828;SDS011;45708;51.848;107.620;2023-11-18T02:54:55;1.35;;;1.35;;
59828;SDS011;45708;51.848;107.620;2023-11-18T02:59:56;1.77;;;1.67;;
59828;SDS011;45708;51.848;107.620;2023-11-18T03:04:57;1.23;;;1.23;;
59828;SDS011;45708;51.848;107.620;2023-11-18T03:09:58;2.20;;;2.10;;
59828;SDS011;45708;51.848;107.620;2023-11-18T03:14:59;1.17;;;0.88;;
59828;SDS011;45708;51.848;107.620;2023-11-18T03:20:00;2.80;;;2.33;;
59828;SDS011;45708;51.848;107.620;2023-11-18T03:25:01;1.05;;;1.02;;
59828;SDS011;45708;51.848;107.620;2023-11-18T03:30:02;5.75;;;0.80;;
59828;SDS011;45708;51.848;107.620;2023-11-18T03:35:03;2.10;;;1.35;;
59828;SDS011;45708;51.848;107.620;2023-11-18T03:40:05;0.47;;;0.47;;
59828;SDS011;45708;51.848;107.620;2023-11-18T03:45:10;1.48;;;1.35;;
59828;SDS011;45708;51.848;107.620;2023-11-18T03:50:11;0.60;;;0.60;;
59828;SDS011;45708;51.848;107.620;2023-11-18T03:55:12;1.98;;;1.88;;
59828;SDS011;45708;51.848;107.620;2023-11-18T04:00:15;1.85;;;0.70;;
59828;SDS011;45708;51.848;107.620;2023-11-18T04:05:16;1.83;;;1.73;;
59828;SDS011;45708;51.848;107.620;2023-11-18T04:10:17;0.20;;;0.20;;
59828;SDS011;45708;51.848;107.620;2023-11-18T04:15:18;0.98;;;0.82;;
59828;SDS011;45708;51.848;107.620;2023-11-18T04:20:19;1.50;;;1.50;;
59828;SDS011;45708;51.848;107.620;2023-11-18T04:25:20;0.68;;;0.68;;
59828;SDS011;45708;51.848;107.620;2023-11-18T04:30:21;3.05;;;2.85;;
59828;SDS011;45708;51.848;107.620;2023-11-18T04:35:23;2.00;;;1.90;;
59828;SDS011;45708;51.848;107.620;2023-11-18T04:40:24;3.83;;;3.50;;
59828;SDS011;45708;51.848;107.620;2023-11-18T04:45:24;2.05;;;1.52;;
59828;SDS011;45708;51.848;107.620;2023-11-18T04:50:25;5.68;;;3.45;;
59828;SDS011;45708;51.848;107.620;2023-11-18T04:55:26;3.10;;;2.13;;
59828;SDS011;45708;51.848;107.620;2023-11-18T05:00:27;5.47;;;4.70;;
59828;SDS011;45708;51.848;107.620;2023-11-18T05:05:27;4.45;;;3.03;;
59828;SDS011;45708;51.848;107.620;2023-11-18T05:10:30;1.63;;;1.33;;
59828;SDS011;45708;51.848;107.620;2023-11-18T05:15:31;4.43;;;4.00;;
59828;SDS011;45708;51.848;107.620;2023-11-18T05:20:31;5.25;;;2.45;;
59828;SDS011;45708;51.848;107.620;2023-11-18T05:25:32;5.15;;;2.63;;
59828;SDS011;45708;51.848;107.620;2023-11-18T05:30:33;2.40;;;2.00;;
59828;SDS011;45708;51.848;107.620;2023-11-18T05:35:34;4.25;;;2.13;;
59828;SDS011;45708;51.848;107.620;2023-11-18T05:40:35;2.85;;;2.75;;
59828;SDS011;45708;51.848;107.620;2023-11-18T05:45:36;2.45;;;1.85;;
59828;SDS011;45708;51.848;107.620;2023-11-18T05:50:37;3.25;;;3.08;;
59828;SDS011;45708;51.848;107.620;2023-11-18T05:55:38;4.45;;;4.25;;
59828;SDS011;45708;51.848;107.620;2023-11-18T06:00:38;2.40;;;2.28;;
59828;SDS011;45708;51.848;107.620;2023-11-18T06:05:39;8.70;;;5.72;;
59828;SDS011;45708;51.848;107.620;2023-11-18T06:10:40;6.95;;;6.55;;
59828;SDS011;45708;51.848;107.620;2023-11-18T06:15:41;8.65;;;5.85;;
59828;SDS011;45708;51.848;107.620;2023-11-18T06:20:42;10.18;;;7.10;;
59828;SDS011;45708;51.848;107.620;2023-11-18T06:25:42;9.15;;;5.95;;
59828;SDS011;45708;51.848;107.620;2023-11-18T06:30:43;5.63;;;5.18;;
59828;SDS011;45708;51.848;107.620;2023-11-18T06:35:44;4.15;;;3.78;;
59828;SDS011;45708;51.848;107.620;2023-11-18T06:40:45;3.80;;;3.13;;
59828;SDS011;45708;51.848;107.620;2023-11-18T06:45:46;2.72;;;2.63;;
59828;SDS011;45708;51.848;107.620;2023-11-18T06:50:46;9.18;;;7.05;;
59828;SDS011;45708;51.848;107.620;2023-11-18T06:55:47;13.23;;;5.47;;
59828;SDS011;45708;51.848;107.620;2023-11-18T07:00:48;5.22;;;2.53;;
59828;SDS011;45708;51.848;107.620;2023-11-18T07:05:49;7.90;;;7.22;;
59828;SDS011;45708;51.848;107.620;2023-11-18T07:10:50;16.27;;;8.65;;
59828;SDS011;45708;51.848;107.620;2023-11-18T07:15:52;10.50;;;7.80;;
59828;SDS011;45708;51.848;107.620;2023-11-18T07:20:53;6.38;;;5.82;;
59828;SDS011;45708;51.848;107.620;2023-11-18T07:25:54;14.98;;;10.02;;
59828;SDS011;45708;51.848;107.620;2023-11-18T07:30:55;8.48;;;6.65;;
59828;SDS011;45708;51.848;107.620;2023-11-18T07:35:55;19.23;;;9.35;;
59828;SDS011;45708;51.848;107.620;2023-11-18T07:40:56;5.35;;;4.88;;
59828;SDS011;45708;51.848;107.620;2023-11-18T07:45:57;3.45;;;3.15;;
59828;SDS011;45708;51.848;107.620;2023-11-18T07:50:58;4.03;;;3.67;;
59828;SDS011;45708;51.848;107.620;2023-11-18T07:55:58;3.00;;;2.80;;
59828;SDS011;45708;51.848;107.620;2023-11-18T08:00:59;8.60;;;6.05;;
59828;SDS011;45708;51.848;107.620;2023-11-18T08:06:00;7.97;;;5.40;;
59828;SDS011;45708;51.848;107.620;2023-11-18T08:11:01;9.82;;;5.90;;
59828;SDS011;45708;51.848;107.620;2023-11-18T08:16:02;26.75;;;8.27;;
59828;SDS011;45708;51.848;107.620;2023-11-18T08:21:03;7.95;;;7.32;;
59828;SDS011;45708;51.848;107.620;2023-11-18T08:26:04;14.43;;;8.02;;
59828;SDS011;45708;51.848;107.620;2023-11-18T08:31:05;4.88;;;4.45;;
59828;SDS011;45708;51.848;107.620;2023-11-18T08:36:06;21.10;;;13.50;;
59828;SDS011;45708;51.848;107.620;2023-11-18T08:41:07;20.17;;;18.13;;
59828;SDS011;45708;51.848;107.620;2023-11-18T08:46:08;14.45;;;13.00;;
59828;SDS011;45708;51.848;107.620;2023-11-18T08:51:09;22.70;;;16.75;;
59828;SDS011;45708;51.848;107.620;2023-11-18T08:56:10;12.98;;;11.73;;
59828;SDS011;45708;51.848;107.620;2023-11-18T09:01:11;15.13;;;13.70;;
59828;SDS011;45708;51.848;107.620;2023-11-18T09:06:12;17.38;;;15.70;;
59828;SDS011;45708;51.848;107.620;2023-11-18T09:11:13;11.38;;;10.32;;
59828;SDS011;45708;51.848;107.620;2023-11-18T09:16:17;14.32;;;11.82;;
59828;SDS011;45708;51.848;107.620;2023-11-18T09:21:18;13.60;;;6.93;;
59828;SDS011;45708;51.848;107.620;2023-11-18T09:26:19;10.07;;;8.48;;
59828;SDS011;45708;51.848;107.620;2023-11-18T09:31:20;13.25;;;11.85;;
59828;SDS011;45708;51.848;107.620;2023-11-18T09:36:20;13.48;;;12.55;;
59828;SDS011;45708;51.848;107.620;2023-11-18T09:41:22;23.15;;;19.85;;
59828;SDS011;45708;51.848;107.620;2023-11-18T09:46:24;27.27;;;21.00;;
59828;SDS011;45708;51.848;107.620;2023-11-18T09:51:26;23.20;;;17.90;;
59828;SDS011;45708;51.848;107.620;2023-11-18T10:01:58;40.25;;;20.52;;
59828;SDS011;45708;51.848;107.620;2023-11-18T10:07:00;26.05;;;16.52;;
59828;SDS011;45708;51.848;107.620;2023-11-18T10:12:03;28.65;;;19.48;;
59828;SDS011;45708;51.848;107.620;2023-11-18T10:17:07;22.60;;;13.82;;
59828;SDS011;45708;51.848;107.620;2023-11-18T10:22:14;24.17;;;17.15;;
59828;SDS011;45708;51.848;107.620;2023-11-18T10:32:24;15.93;;;14.20;;
59828;SDS011;45708;51.848;107.620;2023-11-18T10:37:27;14.25;;;12.52;;
59828;SDS011;45708;51.848;107.620;2023-11-18T10:42:28;15.68;;;14.10;;
59828;SDS011;45708;51.848;107.620;2023-11-18T10:47:33;14.95;;;11.38;;
59828;SDS011;45708;51.848;107.620;2023-11-18T10:52:34;9.38;;;8.27;;
59828;SDS011;45708;51.848;107.620;2023-11-18T10:57:35;10.57;;;8.40;;
59828;SDS011;45708;51.848;107.620;2023-11-18T11:02:36;14.20;;;9.68;;
59828;SDS011;45708;51.848;107.620;2023-11-18T11:07:36;14.73;;;12.45;;
59828;SDS011;45708;51.848;107.620;2023-11-18T11:12:43;12.77;;;8.82;;
59828;SDS011;45708;51.848;107.620;2023-11-18T11:17:54;11.25;;;9.27;;
59828;SDS011;45708;51.848;107.620;2023-11-18T11:28:22;14.27;;;9.43;;
59828;SDS011;45708;51.848;107.620;2023-11-18T11:38:37;8.05;;;7.47;;
59828;SDS011;45708;51.848;107.620;2023-11-18T11:43:38;12.43;;;8.13;;
59828;SDS011;45708;51.848;107.620;2023-11-18T11:48:40;12.52;;;11.43;;
59828;SDS011;45708;51.848;107.620;2023-11-18T11:53:48;26.10;;;14.23;;
59828;SDS011;45708;51.848;107.620;2023-11-18T11:58:55;13.18;;;12.00;;
59828;SDS011;45708;51.848;107.620;2023-11-18T12:03:58;8.57;;;7.97;;
59828;SDS011;45708;51.848;107.620;2023-11-18T12:08:59;16.73;;;10.15;;
59828;SDS011;45708;51.848;107.620;2023-11-18T12:14:04;26.48;;;11.48;;
59828;SDS011;45708;51.848;107.620;2023-11-18T12:24:32;9.15;;;6.25;;
59828;SDS011;45708;51.848;107.620;2023-11-18T12:29:45;11.93;;;7.45;;
59828;SDS011;45708;51.848;107.620;2023-11-18T12:34:49;11.60;;;10.45;;
59828;SDS011;45708;51.848;107.620;2023-11-18T12:40:06;8.70;;;7.80;;
59828;SDS011;45708;51.848;107.620;2023-11-18T12:50:44;16.45;;;12.40;;
59828;SDS011;45708;51.848;107.620;2023-11-18T12:55:45;17.60;;;11.37;;
59828;SDS011;45708;51.848;107.620;2023-11-18T13:00:47;10.40;;;9.57;;
59828;SDS011;45708;51.848;107.620;2023-11-18T13:05:49;18.23;;;14.82;;
59828;SDS011;45708;51.848;107.620;2023-11-18T13:10:50;9.10;;;8.37;;
59828;SDS011;45708;51.848;107.620;2023-11-18T13:15:51;14.52;;;13.38;;
59828;SDS011;45708;51.848;107.620;2023-11-18T13:20:55;9.03;;;6.50;;
59828;SDS011;45708;51.848;107.620;2023-11-18T13:25:56;15.47;;;13.97;;
59828;SDS011;45708;51.848;107.620;2023-11-18T13:30:58;21.37;;;14.50;;
59828;SDS011;45708;51.848;107.620;2023-11-18T13:35:58;11.43;;;10.57;;
59828;SDS011;45708;51.848;107.620;2023-11-18T13:41:01;12.10;;;10.53;;
59828;SDS011;45708;51.848;107.620;2023-11-18T13:46:02;9.83;;;8.40;;
59828;SDS011;45708;51.848;107.620;2023-11-18T13:51:04;9.70;;;8.80;;
59828;SDS011;45708;51.848;107.620;2023-11-18T13:56:06;8.90;;;8.23;;
59828;SDS011;45708;51.848;107.620;2023-11-18T14:01:09;13.10;;;12.03;;
59828;SDS011;45708;51.848;107.620;2023-11-18T14:06:11;24.40;;;16.90;;
59828;SDS011;45708;51.848;107.620;2023-11-18T14:11:12;14.23;;;8.90;;
59828;SDS011;45708;51.848;107.620;2023-11-18T14:16:13;9.03;;;8.27;;
59828;SDS011;45708;51.848;107.620;2023-11-18T14:21:14;7.33;;;6.77;;
59828;SDS011;45708;51.848;107.620;2023-11-18T14:26:15;10.87;;;4.90;;
59828;SDS011;45708;51.848;107.620;2023-11-18T14:31:16;13.93;;;7.73;;
59828;SDS011;45708;51.848;107.620;2023-11-18T14:36:17;7.00;;;6.53;;
59828;SDS011;45708;51.848;107.620;2023-11-18T14:41:18;4.53;;;3.87;;
59828;SDS011;45708;51.848;107.620;2023-11-18T14:46:19;6.80;;;4.50;;
59828;SDS011;45708;51.848;107.620;2023-11-18T14:51:20;10.27;;;7.07;;
59828;SDS011;45708;51.848;107.620;2023-11-18T14:56:21;10.27;;;5.20;;
59828;SDS011;45708;51.848;107.620;2023-11-18T15:01:22;3.60;;;3.33;;
59828;SDS011;45708;51.848;107.620;2023-11-18T15:06:27;5.97;;;5.53;;
59828;SDS011;45708;51.848;107.620;2023-11-18T15:11:28;16.97;;;10.77;;
59828;SDS011;45708;51.848;107.620;2023-11-18T15:16:32;8.57;;;6.73;;
59828;SDS011;45708;51.848;107.620;2023-11-18T15:21:33;8.20;;;7.43;;
59828;SDS011;45708;51.848;107.620;2023-11-18T15:26:34;5.23;;;4.83;;
59828;SDS011;45708;51.848;107.620;2023-11-18T15:31:35;6.73;;;4.00;;
59828;SDS011;45708;51.848;107.620;2023-11-18T15:36:40;3.93;;;2.63;;
59828;SDS011;45708;51.848;107.620;2023-11-18T15:41:42;2.70;;;2.60;;
59828;SDS011;45708;51.848;107.620;2023-11-18T15:46:47;7.53;;;4.20;;
59828;SDS011;45708;51.848;107.620;2023-11-18T15:51:48;7.53;;;5.77;;
59828;SDS011;45708;51.848;107.620;2023-11-18T15:56:49;4.00;;;3.60;;
59828;SDS011;45708;51.848;107.620;2023-11-18T16:01:51;7.53;;;6.23;;
59828;SDS011;45708;51.848;107.620;2023-11-18T16:06:52;11.43;;;2.60;;
59828;SDS011;45708;51.848;107.620;2023-11-18T16:11:53;5.67;;;5.13;;
59828;SDS011;45708;51.848;107.620;2023-11-18T16:16:57;2.33;;;2.27;;
59828;SDS011;45708;51.848;107.620;2023-11-18T16:22:03;5.33;;;3.47;;
59828;SDS011;45708;51.848;107.620;2023-11-18T16:27:04;4.97;;;3.53;;
59828;SDS011;45708;51.848;107.620;2023-11-18T16:32:05;22.10;;;5.70;;
59828;SDS011;45708;51.848;107.620;2023-11-18T16:37:06;2.83;;;1.50;;
59828;SDS011;45708;51.848;107.620;2023-11-18T16:42:07;1.47;;;1.37;;
59828;SDS011;45708;51.848;107.620;2023-11-18T16:47:08;4.90;;;2.80;;
59828;SDS011;45708;51.848;107.620;2023-11-18T16:52:08;4.67;;;4.27;;
59828;SDS011;45708;51.848;107.620;2023-11-18T16:57:09;7.17;;;5.37;;
59828;SDS011;45708;51.848;107.620;2023-11-18T17:02:10;4.13;;;3.83;;
59828;SDS011;45708;51.848;107.620;2023-11-18T17:07:11;3.50;;;3.23;;
59828;SDS011;45708;51.848;107.620;2023-11-18T17:12:12;8.23;;;7.53;;
59828;SDS011;45708;51.848;107.620;2023-11-18T17:17:13;6.90;;;6.30;;
59828;SDS011;45708;51.848;107.620;2023-11-18T17:22:13;2.80;;;2.60;;
59828;SDS011;45708;51.848;107.620;2023-11-18T17:27:14;3.30;;;2.67;;
59828;SDS011;45708;51.848;107.620;2023-11-18T17:32:15;15.33;;;8.03;;
59828;SDS011;45708;51.848;107.620;2023-11-18T17:37:16;6.97;;;5.97;;
59828;SDS011;45708;51.848;107.620;2023-11-18T17:42:17;4.60;;;4.27;;
59828;SDS011;45708;51.848;107.620;2023-11-18T17:47:18;5.03;;;4.00;;
59828;SDS011;45708;51.848;107.620;2023-11-18T17:52:19;0.60;;;0.60;;
59828;SDS011;45708;51.848;107.620;2023-11-18T17:57:19;3.70;;;3.43;;
59828;SDS011;45708;51.848;107.620;2023-11-18T18:02:21;6.07;;;5.50;;
59828;SDS011;45708;51.848;107.620;2023-11-18T18:07:21;27.10;;;3.50;;
59828;SDS011;45708;51.848;107.620;2023-11-18T18:12:22;0.93;;;0.93;;
59828;SDS011;45708;51.848;107.620;2023-11-18T18:17:23;4.27;;;3.90;;
59828;SDS011;45708;51.848;107.620;2023-11-18T18:22:24;1.70;;;1.63;;
59828;SDS011;45708;51.848;107.620;2023-11-18T18:27:25;2.83;;;2.73;;
59828;SDS011;45708;51.848;107.620;2023-11-18T18:32:26;3.93;;;2.70;;
59828;SDS011;45708;51.848;107.620;2023-11-18T18:37:27;3.00;;;2.77;;
59828;SDS011;45708;51.848;107.620;2023-11-18T18:42:28;5.40;;;3.77;;
59828;SDS011;45708;51.848;107.620;2023-11-18T18:47:29;11.53;;;5.00;;
59828;SDS011;45708;51.848;107.620;2023-11-18T18:52:31;2.93;;;2.80;;
59828;SDS011;45708;51.848;107.620;2023-11-18T18:57:32;5.10;;;4.80;;
59828;SDS011;45708;51.848;107.620;2023-11-18T19:02:36;8.03;;;6.17;;
59828;SDS011;45708;51.848;107.620;2023-11-18T19:07:40;2.80;;;2.13;;
59828;SDS011;45708;51.848;107.620;2023-11-18T19:12:41;7.93;;;5.83;;
59828;SDS011;45708;51.848;107.620;2023-11-18T19:17:43;2.10;;;2.00;;
59828;SDS011;45708;51.848;107.620;2023-11-18T19:22:44;3.63;;;3.23;;
59828;SDS011;45708;51.848;107.620;2023-11-18T19:27:45;3.90;;;1.80;;
59828;SDS011;45708;51.848;107.620;2023-11-18T19:32:46;2.07;;;1.87;;
59828;SDS011;45708;51.848;107.620;2023-11-18T19:37:47;1.70;;;1.60;;
59828;SDS011;45708;51.848;107.620;2023-11-18T19:42:48;2.53;;;2.43;;
59828;SDS011;45708;51.848;107.620;2023-11-18T19:47:49;3.60;;;1.47;;
59828;SDS011;45708;51.848;107.620;2023-11-18T19:52:50;1.03;;;0.80;;
59828;SDS011;45708;51.848;107.620;2023-11-18T19:57:51;4.70;;;3.43;;
59828;SDS011;45708;51.848;107.620;2023-11-18T20:02:52;2.93;;;2.23;;
59828;SDS011;45708;51.848;107.620;2023-11-18T20:07:53;0.73;;;0.73;;
59828;SDS011;45708;51.848;107.620;2023-11-18T20:12:54;6.23;;;1.30;;
59828;SDS011;45708;51.848;107.620;2023-11-18T20:17:54;1.27;;;1.17;;
59828;SDS011;45708;51.848;107.620;2023-11-18T20:22:55;3.23;;;2.60;;
59828;SDS011;45708;51.848;107.620;2023-11-18T20:27:56;2.27;;;2.23;;
59828;SDS011;45708;51.848;107.620;2023-11-18T20:32:57;6.23;;;2.30;;
59828;SDS011;45708;51.848;107.620;2023-11-18T20:37:58;0.83;;;0.83;;
59828;SDS011;45708;51.848;107.620;2023-11-18T20:42:59;3.63;;;1.93;;
59828;SDS011;45708;51.848;107.620;2023-11-18T20:47:59;2.07;;;1.83;;
59828;SDS011;45708;51.848;107.620;2023-11-18T20:53:00;3.03;;;2.73;;
59828;SDS011;45708;51.848;107.620;2023-11-18T20:58:01;6.43;;;5.93;;
59828;SDS011;45708;51.848;107.620;2023-11-18T21:03:02;8.33;;;5.40;;
59828;SDS011;45708;51.848;107.620;2023-11-18T21:08:03;5.10;;;4.80;;
59828;SDS011;45708;51.848;107.620;2023-11-18T21:13:04;3.67;;;3.37;;
59828;SDS011;45708;51.848;107.620;2023-11-18T21:18:05;2.27;;;2.00;;
59828;SDS011;45708;51.848;107.620;2023-11-18T21:23:06;3.70;;;3.50;;
59828;SDS011;45708;51.848;107.620;2023-11-18T21:28:07;4.07;;;3.87;;
59828;SDS011;45708;51.848;107.620;2023-11-18T21:33:08;2.87;;;2.50;;
59828;SDS011;45708;51.848;107.620;2023-11-18T21:38:09;4.17;;;3.80;;
59828;SDS011;45708;51.848;107.620;2023-11-18T21:43:12;5.63;;;3.57;;
59828;SDS011;45708;51.848;107.620;2023-11-18T21:48:13;2.80;;;2.60;;
59828;SDS011;45708;51.848;107.620;2023-11-18T21:53:14;4.97;;;4.67;;
59828;SDS011;45708;51.848;107.620;2023-11-18T21:58:14;3.77;;;3.33;;
59828;SDS011;45708;51.848;107.620;2023-11-18T22:03:15;2.50;;;2.47;;
59828;SDS011;45708;51.848;107.620;2023-11-18T22:08:16;6.33;;;3.70;;
59828;SDS011;45708;51.848;107.620;2023-11-18T22:13:17;1.77;;;1.70;;
59828;SDS011;45708;51.848;107.620;2023-11-18T22:18:18;2.77;;;2.40;;
59828;SDS011;45708;51.848;107.620;2023-11-18T22:23:18;3.57;;;3.27;;
59828;SDS011;45708;51.848;107.620;2023-11-18T22:28:19;2.17;;;2.03;;
59828;SDS011;45708;51.848;107.620;2023-11-18T22:33:20;4.73;;;4.43;;
59828;SDS011;45708;51.848;107.620;2023-11-18T22:38:21;2.40;;;2.30;;
59828;SDS011;45708;51.848;107.620;2023-11-18T22:43:22;1.87;;;1.83;;
59828;SDS011;45708;51.848;107.620;2023-11-18T22:48:23;1.37;;;1.37;;
59828;SDS011;45708;51.848;107.620;2023-11-18T22:53:23;5.33;;;5.00;;
59828;SDS011;45708;51.848;107.620;2023-11-18T22:58:24;9.00;;;8.20;;
59828;SDS011;45708;51.848;107.620;2023-11-18T23:03:25;4.63;;;3.93;;
59828;SDS011;45708;51.848;107.620;2023-11-18T23:08:26;3.80;;;3.60;;
59828;SDS011;45708;51.848;107.620;2023-11-18T23:13:26;1.17;;;1.17;;
59828;SDS011;45708;51.848;107.620;2023-11-18T23:18:27;0.80;;;0.80;;
59828;SDS011;45708;51.848;107.620;2023-11-18T23:23:28;1.40;;;1.17;;
59828;SDS011;45708;51.848;107.620;2023-11-18T23:28:29;1.37;;;1.33;;
59828;SDS011;45708;51.848;107.620;2023-11-18T23:33:30;2.10;;;1.00;;
59828;SDS011;45708;51.848;107.620;2023-11-18T23:38:31;7.93;;;7.03;;
59828;SDS011;45708;51.848;107.620;2023-11-18T23:43:32;3.83;;;3.47;;
59828;SDS011;45708;51.848;107.620;2023-11-18T23:48:33;6.83;;;3.90;;
59828;SDS011;45708;51.848;107.620;2023-11-18T23:53:34;4.30;;;3.23;;
59828;SDS011;45708;51.848;107.620;2023-11-18T23:58:34;5.63;;;5.03;;
